Flight Track Log - Related Links

Times and Time Zones

All times are in EDT time to prevent confusion due to time zone crossing. See the EJA982 flight status page for this flight to view local times or setup timezone preferences in your user account.

Time Position Orientation Groundspeed Altitude Reporting Facility
EDT Latitude Longitude Course Direction KTS MPH feet Rate Location/Type
Fri 05:28:24 PM 32.1233 -110.9494 317° Northwest 177 204 3,300  Level Albuquerque Center
Fri 05:28:54 PM 32.1453 -110.9739 317° Northwest 199 229 4,600 2,480 Climbing Albuquerque Center
Fri 05:29:39 PM 32.1661 -111.0089 305° West 215 247 6,400 3,084 Climbing Albuquerque Center
Fri 05:30:41 PM 32.1983 -111.0792 298° West 236 272 10,100 2,661 Climbing Albuquerque Center
Fri 05:31:43 PM 32.2417 -111.1647 301° West 293 337 11,900 2,585 Climbing Albuquerque Center
Fri 05:32:44 PM 32.3014 -111.2911 299° West 357 411 15,400 2,683 Climbing Albuquerque Center
Fri 05:33:46 PM 32.3542 -111.4003 300° West 375 432 17,400 1,790 Climbing Albuquerque Center
Fri 05:34:48 PM 32.4083 -111.5119 300° West 388 447 19,100 1,452 Climbing Albuquerque Center
Fri 05:35:50 PM 32.4617 -111.6233 300° West 389 448 20,400 1,984 Climbing Albuquerque Center
Fri 05:36:52 PM 32.5131 -111.7344 299° West 387 445 23,200 2,468 Climbing Albuquerque Center
Fri 05:37:54 PM 32.5603 -111.8317 300° West 354 407 25,500 2,226 Climbing Albuquerque Center
Fri 05:38:56 PM 32.6183 -111.9544 299° West 353 406 27,800 1,984 Climbing Albuquerque Center
Fri 05:39:58 PM 32.6683 -112.0578 300° West 358 412 29,600 1,790 Climbing Albuquerque Center
Fri 05:41:00 PM 32.7186 -112.1628 300° West 361 415 31,500 1,645 Climbing Albuquerque Center
Fri 05:42:02 PM 32.7686 -112.2733 298° West 367 422 33,000 1,355 Climbing Albuquerque Center
Fri 05:43:04 PM 32.8219 -112.3836 300° West 379 436 34,300 919 Climbing Albuquerque Center
Fri 05:44:06 PM 32.8764 -112.5025 299° West 400 460 34,900 823 Climbing Albuquerque Center
Fri 05:45:08 PM 32.9467 -112.6517 299° West 427 491 36,000 532 Climbing Albuquerque Center
Fri 05:46:10 PM 33.0097 -112.7817 300° West 447 514 36,000 98 Level Albuquerque Center
Fri 05:47:11 PM 33.0644 -112.9261 294° West 475 547 36,200 585 Climbing Albuquerque Center
Fri 05:48:13 PM 33.1181 -113.0675 294° West 475 547 37,200 871 Climbing Albuquerque Center
Fri 05:49:15 PM 33.1708 -113.2061 294° West 468 539 38,000 387 Climbing Albuquerque Center
Fri 05:50:17 PM 33.2364 -113.3742 295° West 467 537 38,000  Level Albuquerque Center
Fri 05:51:19 PM 33.2900 -113.5181 294° West 473 544 38,000  Level Albuquerque Center
Fri 05:52:21 PM 33.3436 -113.6603 294° West 472 543 38,000  Level Albuquerque Center
Fri 05:53:23 PM 33.3831 -113.8094 288° West 475 547 38,000  Level Albuquerque Center
Fri 05:54:25 PM 33.4114 -113.9606 283° West 470 541 38,000  Level Albuquerque Center
Fri 05:55:27 PM 33.4403 -114.1144 283° West 474 545 38,000  Level Albuquerque Center
Fri 05:56:29 PM 33.4742 -114.2958 283° West 469 540 38,000  Level Albuquerque Center
Fri 05:57:31 PM 33.5017 -114.4489 282° West 469 540 38,000  Level Albuquerque Center
Fri 05:58:07 PM 33.5211 -114.5492 283° West 468 539 38,000  Level Los Angeles Center
Fri 05:59:10 PM 33.5503 -114.7017 283° West 470 541 38,000  Level Los Angeles Center
Fri 06:00:12 PM 33.5767 -114.8542 282° West 470 541 38,000  Level Los Angeles Center
Fri 06:01:14 PM 33.6025 -115.0050 282° West 465 535 38,000  Level Los Angeles Center
Fri 06:02:16 PM 33.6294 -115.1569 282° West 467 537 38,000  Level Los Angeles Center
Fri 06:03:18 PM 33.6608 -115.3372 282° West 463 533 38,000  Level Los Angeles Center
Fri 06:04:20 PM 33.6864 -115.4864 282° West 460 529 38,000  Level Los Angeles Center
Fri 06:05:23 PM 33.7122 -115.6364 282° West 460 529 38,000 -823 Level Los Angeles Center
Fri 06:06:24 PM 33.7369 -115.7850 281° West 458 527 36,300 -1,951 Descending Los Angeles Center
Fri 06:07:26 PM 33.7633 -115.9403 282° West 474 545 34,000 -2,226 Descending Los Angeles Center
Fri 06:08:28 PM 33.7894 -116.0956 281° West 479 551 31,700 -2,448 Descending Los Angeles Center
Fri 06:09:31 PM 33.8206 -116.2822 281° West 477 549 28,900 -2,400 Descending Los Angeles Center
Fri 06:10:33 PM 33.8458 -116.4344 281° West 467 537 26,700 -1,984 Descending Los Angeles Center
Fri 06:11:35 PM 33.8681 -116.5675 281° West 421 484 24,800 -1,742 Descending Los Angeles Center
Fri 06:12:37 PM 33.8864 -116.6858 281° West 374 430 23,100 -1,694 Descending Los Angeles Center
Fri 06:13:39 PM 33.9067 -116.8064 281° West 367 422 21,300 -1,887 Descending Los Angeles Center
Fri 06:14:41 PM 33.9286 -116.9464 281° West 359 413 19,200 -1,790 Descending Los Angeles Center
Fri 06:15:43 PM 33.9461 -117.0553 281° West 340 391 17,600 -1,113 Descending Los Angeles Center
Fri 06:16:45 PM 33.9519 -117.1628 274° West 326 375 16,900 -774 Descending Los Angeles Center
Fri 06:17:47 PM 33.9394 -117.2722 262° West 334 384 16,000 -532 Descending Los Angeles Center
Fri 06:18:49 PM 33.9319 -117.3858 265° West 340 391 15,800 -6,576 Descending Los Angeles Center
Fri 06:19:52 PM 33.9819 -117.5167 295° West 354 407 2,300 -1,636 Descending Los Angeles Center
Fri 06:21:01 PM 34.0167 -117.6333 290° West 355 409 12,200 3,953 Climbing Southern California TRACON
Fri 06:22:01 PM 34.0000 -117.7167 256° West 248 285 10,800 -1,368 Descending Southern California TRACON
Fri 06:22:55 PM 34.0000 -117.8000 270° West 250 288 9,600 -1,160 Descending Southern California TRACON
Fri 06:25:02 PM 33.9822 -117.9442 262° West 208 239 7,300 -1,097 Descending Los Angeles Center
Fri 06:26:01 PM 33.9667 -118.0167 256° West 194 223 6,200 -1,050 Descending Southern California TRACON
Fri 06:27:02 PM 33.9667 -118.0667 270° West 195 224 5,200 -992 Descending Southern California TRACON
Fri 06:28:08 PM 33.9631 -118.1369 266° West 196 226 4,100 -977 Descending Los Angeles Center
Fri 06:29:11 PM 33.9567 -118.1997 263° West 193 222 3,100 -960 Descending Los Angeles Center
Fri 06:30:13 PM 33.9494 -118.2642 262° West 173 199 2,100 -871 Descending Los Angeles Center
Fri 06:31:15 PM 33.9450 -118.3108 263° West 155 178 1,300 -677 Descending Los Angeles Center
Fri 06:32:17 PM 33.9411 -118.3542 264° West 142 163 700 -484 Descending Los Angeles Center
Fri 06:33:19 PM 33.9364 -118.4011 263° West 135 155 300 -387 Descending Los Angeles Center
Fri 06:35:00 PM 33.9333 -118.4000 270° West  Level FlightAware Approximate
Fri 06:42:00 PM 33.9425 -118.4081 270° West  Level Estimated

Login

Don't have an account? Register now (free) for customized features, flight alerts, and more!